Address 0x3c0e0e301c98e8cf4af2a84c2661bb69edec4964 1

Txn Hash Method
Block
From
To
Value [Txn Fee]
0xa2fdfe9e95d8794eddb8180d9ea225e9ecd841eee96b1b540a8511189863aaa7Upgrade To100379292021-06-25 8:52:07161 days 23 hrs ago0x3c0e0e301c98e8cf4af2a84c2661bb69edec4964OUT 0x67904771ba19669bb4c632b19552bee725c7605f0 BNB0.00058982
0x639393fbed9f8fdfb45c0484269220eda60adc88e0a03844ba472175fe01e73eUpgrade To100378832021-06-25 8:49:49161 days 23 hrs ago0x3c0e0e301c98e8cf4af2a84c2661bb69edec4964OUT 0x67904771ba19669bb4c632b19552bee725c7605f0 BNB0.00058982
0x777a366b1bdfece20ff666741f4e7ef7c6c319e62d75245c31b34d8cad749479Upgrade To97314002021-06-14 17:25:25172 days 14 hrs ago0x3c0e0e301c98e8cf4af2a84c2661bb69edec4964OUT 0x82781ac7ce2952c4531fbe58991bcd01c3df735a0 BNB0.0058982
0xaa655169d03f2d19fcb3c09fb8626db27d331baa896c08ae002c60477fa61ae1Upgrade To97310822021-06-14 17:09:31172 days 15 hrs ago0x3c0e0e301c98e8cf4af2a84c2661bb69edec4964OUT 0x82781ac7ce2952c4531fbe58991bcd01c3df735a0 BNB0.0058982
0x248829353b985337de0ae78b8768204e38d8ef7dab20fa7a8acc5400cf7fe72cUpgrade To97310362021-06-14 17:07:13172 days 15 hrs ago0x3c0e0e301c98e8cf4af2a84c2661bb69edec4964OUT 0x82781ac7ce2952c4531fbe58991bcd01c3df735a0 BNB0.0058982
0x0e7986a8d1a66f326258c79b0ffceb9dda1b7dd03151e9b29d93c794c6c0e947Upgrade To97279892021-06-14 14:34:52172 days 17 hrs ago0x3c0e0e301c98e8cf4af2a84c2661bb69edec4964OUT 0x82781ac7ce2952c4531fbe58991bcd01c3df735a0 BNB0.0058958
0xba75f0f90586f9fece8ae21f1a1d68f42df576d642b9147a685fd1476d18ecf0Upgrade To97275412021-06-14 14:12:28172 days 18 hrs ago0x3c0e0e301c98e8cf4af2a84c2661bb69edec4964OUT 0x7efca7be2da01be80bce9ec9e13a4e862c62e4c30 BNB0.0058982
0xc6dbaa0bff76000ba6f19c773708e5f23ce0a7727a9e883810797543ee8cd54aUpgrade To97273982021-06-14 14:05:19172 days 18 hrs ago0x3c0e0e301c98e8cf4af2a84c2661bb69edec4964OUT 0x7efca7be2da01be80bce9ec9e13a4e862c62e4c30 BNB0.0058982
0xa505de2b882cab6b342b197eb7b652fd198246fd9f39c484e8d89f77059bb483Upgrade To97273472021-06-14 14:02:46172 days 18 hrs ago0x3c0e0e301c98e8cf4af2a84c2661bb69edec4964OUT 0x82781ac7ce2952c4531fbe58991bcd01c3df735a0 BNB0.0050582
0x753a2d786219e671c0ca11a5ad130138126fa82871b0cf118cf4080a14232885Upgrade To96897882021-06-13 6:44:49174 days 1 hr ago0x3c0e0e301c98e8cf4af2a84c2661bb69edec4964OUT 0xd93583ce5223f44f602583b909bd98ce0b651c850 BNB0.00029491
0x49a6da589de79e1cab1ce49ad645611e3c3f39c6906b501a939181be342cd481Upgrade To96896972021-06-13 6:40:16174 days 1 hr ago0x3c0e0e301c98e8cf4af2a84c2661bb69edec4964OUT 0x67904771ba19669bb4c632b19552bee725c7605f0 BNB0.00058982
0x1817fa52425dfafb8b4cfab296c7816a3b2c096f4ac1fa7ac70b4c298826290aUpgrade To96718742021-06-12 15:49:07174 days 16 hrs ago0x3c0e0e301c98e8cf4af2a84c2661bb69edec4964OUT 0x67904771ba19669bb4c632b19552bee725c7605f0 BNB0.00058982
0xb0021c770364a427d9585896540ee8b7d06d4daa0b9e0fcffeee4880cb5087abUpgrade To96718582021-06-12 15:48:19174 days 16 hrs ago0x3c0e0e301c98e8cf4af2a84c2661bb69edec4964OUT 0x67904771ba19669bb4c632b19552bee725c7605f0 BNB0.00050582
0x9e00ce57fb711a6b14b54fd04b5c747f89408754c87215a95ef2ce121fbe880dUpgrade To96656902021-06-12 10:39:55174 days 21 hrs ago0x3c0e0e301c98e8cf4af2a84c2661bb69edec4964OUT 0xef932925cb45cb4a07c767c23aab5c9e1fb93c740 BNB0.00058982
0x608b19b9a7a780adec3f7c76660749551409615f30cd94031927d2a8e3d4f1acUpgrade To96418752021-06-11 14:49:10175 days 17 hrs ago0x3c0e0e301c98e8cf4af2a84c2661bb69edec4964OUT 0xef932925cb45cb4a07c767c23aab5c9e1fb93c740 BNB0.00058982
0xaca98a3143bdb43b030cf46a40fd775afe92d941019a038e5faa9d4a415d60cdUpgrade To96414022021-06-11 14:25:31175 days 17 hrs ago0x3c0e0e301c98e8cf4af2a84c2661bb69edec4964OUT 0xef932925cb45cb4a07c767c23aab5c9e1fb93c740 BNB0.00058982
0x126ac70dbcbce1e3997a4718c2802219889b40a1d9c533e0ce7df17233207216Upgrade To96413542021-06-11 14:23:07175 days 17 hrs ago0x3c0e0e301c98e8cf4af2a84c2661bb69edec4964OUT 0xef932925cb45cb4a07c767c23aab5c9e1fb93c740 BNB0.00058982
0x7cbf43c05d5e1b274ad4f808fdd57c4f747a1a8bea4a4265ae6fa28bcc27f212Upgrade To96407602021-06-11 13:53:25175 days 18 hrs ago0x3c0e0e301c98e8cf4af2a84c2661bb69edec4964OUT 0xef932925cb45cb4a07c767c23aab5c9e1fb93c740 BNB0.00058982
0x0a60bdd11362180a0973296542465cc2f3de358313d6fba7ef636cff0e99343cUpgrade To96349932021-06-11 9:05:04175 days 23 hrs ago0x3c0e0e301c98e8cf4af2a84c2661bb69edec4964OUT 0xef932925cb45cb4a07c767c23aab5c9e1fb93c740 BNB0.00058982
0x664f9954d5bcdf7a68b854cd0935115906ecc491074c4853fb8224305f29aa2dUpgrade To96345202021-06-11 8:41:25175 days 23 hrs ago0x3c0e0e301c98e8cf4af2a84c2661bb69edec4964OUT 0xef932925cb45cb4a07c767c23aab5c9e1fb93c740 BNB0.00058982
0x12f77244d536033845bdbd16c66c62f9dd87f0aad1e145707de15c957f5658c9Upgrade To96344402021-06-11 8:37:25175 days 23 hrs ago0x3c0e0e301c98e8cf4af2a84c2661bb69edec4964OUT 0xef932925cb45cb4a07c767c23aab5c9e1fb93c740 BNB0.00058982
0x02ec849c1d96e73b134340a53f3b8f3e206ccbc81f16adeb5785a239e1f941b4Upgrade To96312062021-06-11 5:55:43176 days 2 hrs ago0x3c0e0e301c98e8cf4af2a84c2661bb69edec4964OUT 0xef932925cb45cb4a07c767c23aab5c9e1fb93c740 BNB0.00058982
0xbfa69247849fc58a73774f024f94b5df212898d9145066d2722c5d241db93f8aUpgrade To96311052021-06-11 5:50:40176 days 2 hrs ago0x3c0e0e301c98e8cf4af2a84c2661bb69edec4964OUT 0xef932925cb45cb4a07c767c23aab5c9e1fb93c740 BNB0.00058982
0x5d21b290d5456771b6855d335dbe988852ec707dccfea380d409776cf01c3783Upgrade To96310392021-06-11 5:47:22176 days 2 hrs ago0x3c0e0e301c98e8cf4af2a84c2661bb69edec4964OUT 0xef932925cb45cb4a07c767c23aab5c9e1fb93c740 BNB0.00058982
0xef3f440fb2dbf07a4dff62dc6e9e48a3329a627a16a1958fd2e48d5452693320Upgrade To96306202021-06-11 5:26:25176 days 2 hrs ago0x3c0e0e301c98e8cf4af2a84c2661bb69edec4964OUT 0xef932925cb45cb4a07c767c23aab5c9e1fb93c740 BNB0.00058982
[ Download CSV Export 
Parent Txn Hash Block From To Value
Loading

Contract Name:
0 BNB

Compiler Version
0

Optimization Enabled:
0 BNB

Other Settings:
-NA-
Block Transaction Gas Used Reward
Age Block Fee Address BC Fee Address Voting Power Jailed Incoming
Block Uncle Number Difficulty Gas Used Reward
Loading